AAL142 KDFW-KJFK
Flight info
| Callsign | AAL142 |
|---|---|
| Flight time | 2h 39m |
| Altitude | 37000 |
| Route | ZACHH4 BSKAT LIT J131 PXV/N0463F390 ROD KLYNE Q29 JHW Q476 WLKES PUCKY1 |
| Aircraft | MD11/H-SDE1E2E3FGHIJ2J3J4J5M1RWXY/LB1D1 |
Departure
| Time | 2026-05-06 04:35 |
|---|---|
| Airport | Dallas Fort Worth International Airport (KDFW) |
Arrival
| Time | 2026-05-06 07:15 |
|---|---|
| Airport | John F. Kennedy International Airport (KJFK) |
| Time | Latitude | Longitude | Altitude | Speed | Heading |
|---|---|---|---|---|---|
| 2026-05-06 04:25 | 32.89932 | -97.04666 | 622 ft | 0 kts | 179° |
| 2026-05-06 04:28 | 32.89917 | -97.04666 | 622 ft | 3 kts | 179° |
| 2026-05-06 04:29 | 32.89875 | -97.04665 | 614 ft | 10 kts | 179° |
| 2026-05-06 04:29 | 32.89789 | -97.04665 | 614 ft | 13 kts | 181° |
| 2026-05-06 04:29 | 32.89705 | -97.04666 | 613 ft | 11 kts | 180° |
| 2026-05-06 04:29 | 32.89658 | -97.04683 | 617 ft | 8 kts | 213° |
| 2026-05-06 04:30 | 32.89627 | -97.04765 | 619 ft | 12 kts | 260° |
| 2026-05-06 04:30 | 32.89616 | -97.04847 | 615 ft | 8 kts | 251° |
| 2026-05-06 04:30 | 32.89580 | -97.04883 | 615 ft | 6 kts | 197° |
| 2026-05-06 04:30 | 32.89506 | -97.04888 | 614 ft | 16 kts | 181° |
| 2026-05-06 04:31 | 32.89352 | -97.04888 | 612 ft | 26 kts | 180° |
| 2026-05-06 04:31 | 32.89167 | -97.04887 | 599 ft | 27 kts | 180° |
| 2026-05-06 04:31 | 32.88985 | -97.04890 | 598 ft | 26 kts | 180° |
| 2026-05-06 04:31 | 32.88811 | -97.04892 | 595 ft | 25 kts | 180° |
| 2026-05-06 04:32 | 32.88638 | -97.04892 | 596 ft | 23 kts | 178° |
| 2026-05-06 04:32 | 32.88485 | -97.04892 | 597 ft | 23 kts | 181° |
| 2026-05-06 04:32 | 32.88316 | -97.04894 | 596 ft | 25 kts | 180° |
| 2026-05-06 04:32 | 32.88153 | -97.04894 | 597 ft | 22 kts | 179° |
| 2026-05-06 04:33 | 32.88060 | -97.04933 | 596 ft | 5 kts | 238° |
| 2026-05-06 04:33 | 32.88057 | -97.05009 | 597 ft | 16 kts | 272° |
| 2026-05-06 04:33 | 32.88069 | -97.05064 | 598 ft | 1 kts | 305° |
| 2026-05-06 04:33 | 32.88071 | -97.05066 | 598 ft | 2 kts | 312° |
| 2026-05-06 04:34 | 32.88093 | -97.05082 | 598 ft | 7 kts | 334° |
| 2026-05-06 04:34 | 32.88129 | -97.05089 | 598 ft | 4 kts | 357° |
| 2026-05-06 04:34 | 32.88159 | -97.05090 | 599 ft | 10 kts | 359° |
| 2026-05-06 04:34 | 32.88499 | -97.05089 | 597 ft | 97 kts | 0° |
| 2026-05-06 04:35 | 32.89463 | -97.05086 | 664 ft | 168 kts | 0° |
| 2026-05-06 04:35 | 32.90684 | -97.05087 | 1513 ft | 184 kts | 1° |
| 2026-05-06 04:35 | 32.91904 | -97.04938 | 2842 ft | 168 kts | 11° |
| 2026-05-06 04:35 | 32.93165 | -97.04707 | 3573 ft | 207 kts | 9° |
| 2026-05-06 04:36 | 32.94764 | -97.04431 | 3853 ft | 259 kts | 8° |
| 2026-05-06 04:36 | 32.96658 | -97.04125 | 4572 ft | 282 kts | 7° |
| 2026-05-06 04:36 | 32.98643 | -97.03817 | 5664 ft | 290 kts | 5° |
| 2026-05-06 04:36 | 33.00663 | -97.03517 | 6777 ft | 295 kts | 3° |
| 2026-05-06 04:37 | 33.02716 | -97.03219 | 7846 ft | 298 kts | 1° |
| 2026-05-06 04:37 | 33.04778 | -97.02782 | 8924 ft | 306 kts | 11° |
| 2026-05-06 04:37 | 33.06698 | -97.01580 | 9921 ft | 322 kts | 36° |
| 2026-05-06 04:37 | 33.08136 | -96.99404 | 10362 ft | 355 kts | 61° |
| 2026-05-06 04:38 | 33.08903 | -96.96476 | 10498 ft | 386 kts | 83° |
| 2026-05-06 04:38 | 33.08867 | -96.93207 | 10789 ft | 401 kts | 101° |
| 2026-05-06 04:38 | 33.08336 | -96.89979 | 11460 ft | 406 kts | 105° |
| 2026-05-06 04:38 | 33.07687 | -96.86678 | 12175 ft | 411 kts | 106° |
| 2026-05-06 04:39 | 33.07055 | -96.83325 | 12939 ft | 416 kts | 105° |
| 2026-05-06 04:39 | 33.06474 | -96.79922 | 13721 ft | 421 kts | 104° |
| 2026-05-06 04:39 | 33.05934 | -96.76461 | 14371 ft | 427 kts | 103° |
| 2026-05-06 04:39 | 33.05419 | -96.72949 | 15004 ft | 434 kts | 103° |
| 2026-05-06 04:40 | 33.04916 | -96.69378 | 15630 ft | 439 kts | 103° |
| 2026-05-06 04:40 | 33.04413 | -96.65756 | 16280 ft | 445 kts | 103° |
| 2026-05-06 04:40 | 33.03904 | -96.62077 | 16896 ft | 451 kts | 103° |
| 2026-05-06 04:40 | 33.03396 | -96.58409 | 17491 ft | 457 kts | 103° |
| 2026-05-06 04:41 | 33.02873 | -96.54644 | 18083 ft | 463 kts | 104° |
| 2026-05-06 04:41 | 33.02342 | -96.50837 | 18642 ft | 468 kts | 104° |
| 2026-05-06 04:41 | 33.01805 | -96.46999 | 19204 ft | 472 kts | 104° |
| 2026-05-06 04:41 | 33.01263 | -96.43129 | 19800 ft | 475 kts | 103° |
| 2026-05-06 04:42 | 33.00715 | -96.39234 | 20340 ft | 479 kts | 104° |
| 2026-05-06 04:42 | 33.00259 | -96.35280 | 20817 ft | 486 kts | 97° |
| 2026-05-06 04:42 | 33.00441 | -96.31231 | 21336 ft | 495 kts | 81° |
| 2026-05-06 04:42 | 33.01385 | -96.27273 | 21830 ft | 499 kts | 68° |
| 2026-05-06 04:43 | 33.02766 | -96.23459 | 22330 ft | 503 kts | 63° |
| 2026-05-06 04:43 | 33.04299 | -96.19683 | 22856 ft | 508 kts | 62° |
| 2026-05-06 04:43 | 33.05825 | -96.15914 | 23435 ft | 512 kts | 63° |
| 2026-05-06 04:43 | 33.07329 | -96.12039 | 23891 ft | 517 kts | 64° |
| 2026-05-06 04:44 | 33.08790 | -96.08096 | 24301 ft | 523 kts | 65° |
| 2026-05-06 04:44 | 33.10249 | -96.04129 | 24733 ft | 527 kts | 64° |
| 2026-05-06 04:44 | 33.11801 | -96.00120 | 25178 ft | 532 kts | 63° |
| 2026-05-06 04:44 | 33.13391 | -95.96106 | 25612 ft | 537 kts | 62° |
| 2026-05-06 04:45 | 33.15000 | -95.92062 | 26074 ft | 542 kts | 62° |
| 2026-05-06 04:45 | 33.16619 | -95.87970 | 26514 ft | 546 kts | 62° |
| 2026-05-06 04:45 | 33.18240 | -95.83839 | 26958 ft | 551 kts | 62° |
| 2026-05-06 04:45 | 33.19865 | -95.79672 | 27392 ft | 556 kts | 63° |
| 2026-05-06 04:46 | 33.21504 | -95.75454 | 27840 ft | 561 kts | 62° |
| 2026-05-06 04:46 | 33.22593 | -95.72643 | 28134 ft | 564 kts | 62° |
| 2026-05-06 04:46 | 33.24808 | -95.66912 | 28695 ft | 571 kts | 62° |
| 2026-05-06 04:46 | 33.26478 | -95.62589 | 29121 ft | 576 kts | 62° |
| 2026-05-06 04:47 | 33.28141 | -95.58281 | 29612 ft | 581 kts | 62° |
| 2026-05-06 04:47 | 33.29836 | -95.53885 | 30094 ft | 583 kts | 62° |
| 2026-05-06 04:47 | 33.31536 | -95.49471 | 30616 ft | 583 kts | 62° |
| 2026-05-06 04:47 | 33.33228 | -95.45067 | 31138 ft | 583 kts | 62° |
| 2026-05-06 04:48 | 33.34922 | -95.40653 | 31668 ft | 583 kts | 62° |
| 2026-05-06 04:48 | 33.36037 | -95.37747 | 31997 ft | 583 kts | 62° |
| 2026-05-06 04:48 | 33.37729 | -95.33330 | 32513 ft | 582 kts | 62° |
| 2026-05-06 04:48 | 33.39416 | -95.28923 | 33034 ft | 581 kts | 62° |
| 2026-05-06 04:49 | 33.41638 | -95.23107 | 33688 ft | 580 kts | 62° |
| 2026-05-06 04:49 | 33.42772 | -95.20137 | 33982 ft | 580 kts | 62° |
| 2026-05-06 04:49 | 33.44441 | -95.15738 | 34386 ft | 579 kts | 62° |
| 2026-05-06 04:49 | 33.46092 | -95.11363 | 34789 ft | 579 kts | 62° |
| 2026-05-06 04:50 | 33.47748 | -95.06976 | 35187 ft | 578 kts | 62° |
| 2026-05-06 04:50 | 33.49404 | -95.02593 | 35564 ft | 577 kts | 62° |
| 2026-05-06 04:50 | 33.51063 | -94.98209 | 35927 ft | 576 kts | 62° |
| 2026-05-06 04:50 | 33.52698 | -94.93891 | 36304 ft | 576 kts | 62° |
| 2026-05-06 04:51 | 33.54357 | -94.89506 | 36662 ft | 576 kts | 62° |
| 2026-05-06 04:51 | 33.56011 | -94.85132 | 36765 ft | 577 kts | 62° |
| 2026-05-06 04:51 | 33.57679 | -94.80720 | 36790 ft | 583 kts | 62° |
| 2026-05-06 04:52 | 33.61030 | -94.71825 | 36798 ft | 585 kts | 62° |
| 2026-05-06 04:52 | 33.64374 | -94.62916 | 36791 ft | 585 kts | 62° |
| 2026-05-06 04:53 | 33.67690 | -94.54056 | 36782 ft | 585 kts | 62° |
| 2026-05-06 04:53 | 33.71022 | -94.45133 | 36782 ft | 585 kts | 62° |
| 2026-05-06 04:54 | 33.74343 | -94.36219 | 36777 ft | 585 kts | 62° |
| 2026-05-06 04:54 | 33.77663 | -94.27277 | 36777 ft | 585 kts | 62° |
| 2026-05-06 04:55 | 33.80936 | -94.18368 | 36755 ft | 585 kts | 63° |
| 2026-05-06 04:55 | 33.84219 | -94.09432 | 36774 ft | 583 kts | 62° |
| 2026-05-06 04:56 | 33.87505 | -94.00509 | 36771 ft | 583 kts | 62° |
| 2026-05-06 04:56 | 33.90789 | -93.91578 | 36791 ft | 584 kts | 62° |
| 2026-05-06 04:57 | 33.94052 | -93.82679 | 36781 ft | 584 kts | 62° |
| 2026-05-06 04:57 | 33.97315 | -93.73744 | 36773 ft | 579 kts | 62° |
| 2026-05-06 04:58 | 34.00556 | -93.64849 | 36780 ft | 578 kts | 62° |
| 2026-05-06 04:58 | 34.04175 | -93.56250 | 36782 ft | 572 kts | 53° |
| 2026-05-06 04:59 | 34.08499 | -93.48357 | 36784 ft | 568 kts | 49° |
| 2026-05-06 04:59 | 34.12997 | -93.40508 | 36796 ft | 569 kts | 49° |
| 2026-05-06 05:00 | 34.17426 | -93.32572 | 36858 ft | 570 kts | 50° |
| 2026-05-06 05:00 | 34.21829 | -93.24539 | 36812 ft | 574 kts | 50° |
| 2026-05-06 05:01 | 34.26228 | -93.16466 | 36822 ft | 575 kts | 50° |
| 2026-05-06 05:01 | 34.30625 | -93.08392 | 36811 ft | 574 kts | 50° |
| 2026-05-06 05:02 | 34.35013 | -93.00326 | 36801 ft | 573 kts | 50° |
| 2026-05-06 05:02 | 34.39391 | -92.92264 | 36809 ft | 573 kts | 51° |
| 2026-05-06 05:03 | 34.43732 | -92.84253 | 36816 ft | 572 kts | 51° |
| 2026-05-06 05:03 | 34.48113 | -92.76145 | 36817 ft | 576 kts | 51° |
| 2026-05-06 05:04 | 34.52491 | -92.67974 | 36815 ft | 577 kts | 51° |
| 2026-05-06 05:04 | 34.56846 | -92.59842 | 36811 ft | 573 kts | 51° |
| 2026-05-06 05:05 | 34.61178 | -92.51765 | 36812 ft | 572 kts | 51° |
| 2026-05-06 05:05 | 34.65489 | -92.43722 | 36809 ft | 571 kts | 51° |
| 2026-05-06 05:06 | 34.69824 | -92.35614 | 36805 ft | 572 kts | 51° |
| 2026-05-06 05:06 | 34.74157 | -92.27488 | 36791 ft | 573 kts | 51° |
| 2026-05-06 05:07 | 34.78572 | -92.19475 | 36806 ft | 564 kts | 45° |
| 2026-05-06 05:07 | 34.83579 | -92.12204 | 36794 ft | 557 kts | 40° |
| 2026-05-06 05:08 | 34.88794 | -92.05235 | 36803 ft | 557 kts | 39° |
| 2026-05-06 05:08 | 34.93950 | -91.98257 | 36809 ft | 558 kts | 40° |
| 2026-05-06 05:09 | 34.99101 | -91.91150 | 36851 ft | 561 kts | 40° |
| 2026-05-06 05:09 | 35.04260 | -91.83982 | 36844 ft | 561 kts | 41° |
| 2026-05-06 05:10 | 35.09402 | -91.76821 | 36837 ft | 561 kts | 41° |
| 2026-05-06 05:10 | 35.14547 | -91.69654 | 36848 ft | 561 kts | 41° |
| 2026-05-06 05:11 | 35.19697 | -91.62466 | 36886 ft | 561 kts | 41° |
| 2026-05-06 05:11 | 35.24802 | -91.55326 | 36919 ft | 563 kts | 40° |
| 2026-05-06 05:12 | 35.29968 | -91.48089 | 36874 ft | 564 kts | 41° |
| 2026-05-06 05:12 | 35.35116 | -91.40830 | 36883 ft | 563 kts | 41° |
| 2026-05-06 05:13 | 35.40236 | -91.33585 | 36890 ft | 563 kts | 41° |
| 2026-05-06 05:13 | 35.45361 | -91.26344 | 36905 ft | 563 kts | 41° |
| 2026-05-06 05:14 | 35.50507 | -91.19072 | 36951 ft | 564 kts | 40° |
| 2026-05-06 05:14 | 35.55666 | -91.11770 | 36907 ft | 566 kts | 41° |
| 2026-05-06 05:15 | 35.60793 | -91.04490 | 36898 ft | 566 kts | 41° |
| 2026-05-06 05:15 | 35.65943 | -90.97160 | 36908 ft | 566 kts | 41° |
| 2026-05-06 05:16 | 35.71090 | -90.89822 | 36894 ft | 566 kts | 41° |
| 2026-05-06 05:16 | 35.76230 | -90.82476 | 36941 ft | 567 kts | 40° |
| 2026-05-06 05:17 | 35.81376 | -90.75109 | 36892 ft | 567 kts | 41° |
| 2026-05-06 05:17 | 35.86513 | -90.67734 | 36875 ft | 567 kts | 41° |
| 2026-05-06 05:18 | 35.91629 | -90.60335 | 36870 ft | 567 kts | 41° |
| 2026-05-06 05:18 | 35.96734 | -90.52947 | 36872 ft | 567 kts | 41° |
| 2026-05-06 05:19 | 36.01862 | -90.45535 | 36872 ft | 567 kts | 41° |
| 2026-05-06 05:19 | 36.06949 | -90.38174 | 36870 ft | 567 kts | 41° |
| 2026-05-06 05:20 | 36.12062 | -90.30757 | 36882 ft | 567 kts | 41° |
| 2026-05-06 05:20 | 36.17175 | -90.23323 | 36890 ft | 567 kts | 41° |
| 2026-05-06 05:21 | 36.22281 | -90.15882 | 36895 ft | 567 kts | 41° |
| 2026-05-06 05:21 | 36.27417 | -90.08459 | 36911 ft | 565 kts | 40° |
| 2026-05-06 05:22 | 36.32679 | -90.01231 | 36888 ft | 563 kts | 38° |
| 2026-05-06 05:22 | 36.37942 | -89.94134 | 36878 ft | 562 kts | 38° |
| 2026-05-06 05:23 | 36.43229 | -89.86975 | 36879 ft | 562 kts | 38° |
| 2026-05-06 05:23 | 36.51126 | -89.76208 | 36925 ft | 562 kts | 38° |
| 2026-05-06 05:24 | 36.56387 | -89.69007 | 36901 ft | 561 kts | 38° |
| 2026-05-06 05:24 | 36.61632 | -89.61815 | 36888 ft | 561 kts | 39° |
| 2026-05-06 05:25 | 36.66864 | -89.54599 | 36891 ft | 561 kts | 39° |
| 2026-05-06 05:25 | 36.72066 | -89.47412 | 36889 ft | 561 kts | 39° |
| 2026-05-06 05:26 | 36.77307 | -89.40172 | 36903 ft | 562 kts | 39° |
| 2026-05-06 05:26 | 36.82545 | -89.32925 | 36889 ft | 562 kts | 39° |
| 2026-05-06 05:27 | 36.87784 | -89.25660 | 36907 ft | 562 kts | 39° |
| 2026-05-06 05:27 | 36.93009 | -89.18394 | 36909 ft | 561 kts | 39° |
| 2026-05-06 05:28 | 36.98191 | -89.11175 | 36910 ft | 561 kts | 39° |
| 2026-05-06 05:28 | 37.03409 | -89.03892 | 36902 ft | 563 kts | 39° |
| 2026-05-06 05:29 | 37.08635 | -88.96579 | 36889 ft | 563 kts | 39° |
| 2026-05-06 05:29 | 37.13856 | -88.89256 | 36891 ft | 563 kts | 39° |
| 2026-05-06 05:30 | 37.19061 | -88.81926 | 36898 ft | 562 kts | 39° |
| 2026-05-06 05:30 | 37.24215 | -88.74618 | 36910 ft | 562 kts | 39° |
| 2026-05-06 05:31 | 37.29404 | -88.67274 | 36903 ft | 562 kts | 39° |
| 2026-05-06 05:31 | 37.34595 | -88.59927 | 36899 ft | 562 kts | 39° |
| 2026-05-06 05:32 | 37.39786 | -88.52568 | 36895 ft | 562 kts | 39° |
| 2026-05-06 05:32 | 37.44975 | -88.45191 | 36898 ft | 562 kts | 39° |
| 2026-05-06 05:33 | 37.50099 | -88.37887 | 36903 ft | 561 kts | 39° |
| 2026-05-06 05:33 | 37.55268 | -88.30508 | 36906 ft | 561 kts | 39° |
| 2026-05-06 05:34 | 37.60429 | -88.23121 | 36904 ft | 561 kts | 39° |
| 2026-05-06 05:34 | 37.65585 | -88.15723 | 36900 ft | 561 kts | 39° |
| 2026-05-06 05:35 | 37.70739 | -88.08312 | 36951 ft | 562 kts | 39° |
| 2026-05-06 05:35 | 37.75883 | -88.00871 | 36908 ft | 562 kts | 40° |
| 2026-05-06 05:36 | 37.81018 | -87.93412 | 36906 ft | 562 kts | 40° |
| 2026-05-06 05:36 | 37.86125 | -87.86006 | 36904 ft | 562 kts | 40° |
| 2026-05-06 05:37 | 37.91264 | -87.78549 | 36905 ft | 562 kts | 40° |
| 2026-05-06 05:37 | 37.96363 | -87.71021 | 36910 ft | 564 kts | 40° |
| 2026-05-06 05:38 | 38.01424 | -87.63424 | 36904 ft | 564 kts | 41° |
| 2026-05-06 05:38 | 38.05634 | -87.57089 | 36907 ft | 563 kts | 40° |
| 2026-05-06 05:39 | 38.10686 | -87.49489 | 36907 ft | 564 kts | 41° |
| 2026-05-06 05:39 | 38.15744 | -87.41872 | 36901 ft | 564 kts | 41° |
| 2026-05-06 05:40 | 38.20806 | -87.34231 | 36897 ft | 565 kts | 41° |
| 2026-05-06 05:40 | 38.25856 | -87.26587 | 36887 ft | 564 kts | 41° |
| 2026-05-06 05:41 | 38.30865 | -87.18985 | 36872 ft | 563 kts | 41° |
| 2026-05-06 05:41 | 38.35894 | -87.11338 | 36883 ft | 563 kts | 41° |
| 2026-05-06 05:42 | 38.40928 | -87.03665 | 36881 ft | 564 kts | 41° |
| 2026-05-06 05:42 | 38.45955 | -86.95980 | 36880 ft | 564 kts | 41° |
| 2026-05-06 05:43 | 38.50953 | -86.88271 | 36870 ft | 562 kts | 41° |
| 2026-05-06 05:43 | 38.55941 | -86.80582 | 36876 ft | 562 kts | 41° |
| 2026-05-06 05:44 | 38.60900 | -86.72948 | 36893 ft | 562 kts | 41° |
| 2026-05-06 05:44 | 38.65893 | -86.65249 | 36870 ft | 562 kts | 41° |
| 2026-05-06 05:45 | 38.70886 | -86.57530 | 36879 ft | 562 kts | 41° |
| 2026-05-06 05:45 | 38.75877 | -86.49793 | 36888 ft | 563 kts | 41° |
| 2026-05-06 05:46 | 38.80859 | -86.42050 | 36884 ft | 563 kts | 41° |
| 2026-05-06 05:46 | 38.85809 | -86.34338 | 36911 ft | 563 kts | 40° |
| 2026-05-06 05:47 | 38.90790 | -86.26559 | 36886 ft | 562 kts | 41° |
| 2026-05-06 05:47 | 38.95752 | -86.18792 | 36858 ft | 562 kts | 41° |
| 2026-05-06 05:48 | 39.00679 | -86.11037 | 36855 ft | 559 kts | 41° |
| 2026-05-06 05:48 | 39.05576 | -86.03282 | 36942 ft | 558 kts | 41° |
| 2026-05-06 05:49 | 39.10486 | -85.95523 | 36882 ft | 558 kts | 41° |
| 2026-05-06 05:49 | 39.15366 | -85.87810 | 36867 ft | 558 kts | 41° |
| 2026-05-06 05:50 | 39.20270 | -85.80043 | 36878 ft | 558 kts | 41° |
| 2026-05-06 05:50 | 39.25171 | -85.72259 | 36892 ft | 558 kts | 41° |
| 2026-05-06 05:51 | 39.30068 | -85.64461 | 36889 ft | 560 kts | 41° |
| 2026-05-06 05:51 | 39.34970 | -85.56636 | 36883 ft | 560 kts | 41° |
| 2026-05-06 05:52 | 39.39835 | -85.48849 | 36890 ft | 560 kts | 42° |
| 2026-05-06 05:52 | 39.44731 | -85.40994 | 36886 ft | 560 kts | 41° |
| 2026-05-06 05:53 | 39.49610 | -85.33146 | 36917 ft | 559 kts | 42° |
| 2026-05-06 05:53 | 39.54475 | -85.25266 | 36881 ft | 560 kts | 42° |
| 2026-05-06 05:54 | 39.59328 | -85.17377 | 36882 ft | 560 kts | 42° |
| 2026-05-06 05:54 | 39.64188 | -85.09488 | 36882 ft | 560 kts | 42° |
| 2026-05-06 05:55 | 39.69015 | -85.01648 | 36880 ft | 558 kts | 42° |
| 2026-05-06 05:55 | 39.73862 | -84.93758 | 36882 ft | 558 kts | 43° |
| 2026-05-06 05:56 | 39.78707 | -84.85851 | 36878 ft | 559 kts | 43° |
| 2026-05-06 05:56 | 39.83546 | -84.77929 | 36879 ft | 559 kts | 43° |
| 2026-05-06 05:57 | 39.88379 | -84.69999 | 36880 ft | 559 kts | 43° |
| 2026-05-06 05:57 | 39.93202 | -84.62061 | 36885 ft | 556 kts | 43° |
| 2026-05-06 05:58 | 39.97966 | -84.54202 | 36879 ft | 556 kts | 43° |
| 2026-05-06 05:58 | 40.02754 | -84.46288 | 36872 ft | 556 kts | 43° |
| 2026-05-06 05:59 | 40.07520 | -84.38335 | 36878 ft | 556 kts | 43° |
| 2026-05-06 05:59 | 40.12283 | -84.30376 | 36895 ft | 556 kts | 43° |
| 2026-05-06 06:00 | 40.17044 | -84.22431 | 36873 ft | 554 kts | 43° |
| 2026-05-06 06:00 | 40.21794 | -84.14507 | 36865 ft | 553 kts | 43° |
| 2026-05-06 06:01 | 40.26532 | -84.06580 | 36871 ft | 553 kts | 43° |
| 2026-05-06 06:01 | 40.31261 | -83.98645 | 36874 ft | 553 kts | 43° |
| 2026-05-06 06:02 | 40.35960 | -83.90737 | 36865 ft | 553 kts | 44° |
| 2026-05-06 06:02 | 40.40669 | -83.82788 | 36884 ft | 551 kts | 44° |
| 2026-05-06 06:03 | 40.45359 | -83.74854 | 36877 ft | 551 kts | 44° |
| 2026-05-06 06:03 | 40.50045 | -83.66884 | 36872 ft | 552 kts | 45° |
| 2026-05-06 06:04 | 40.54620 | -83.58767 | 36868 ft | 553 kts | 46° |
| 2026-05-06 06:04 | 40.59148 | -83.50581 | 36849 ft | 553 kts | 46° |
| 2026-05-06 06:05 | 40.63674 | -83.42411 | 36860 ft | 552 kts | 45° |
| 2026-05-06 06:05 | 40.68210 | -83.34239 | 36857 ft | 552 kts | 45° |
| 2026-05-06 06:06 | 40.72777 | -83.26210 | 36896 ft | 550 kts | 44° |
| 2026-05-06 06:06 | 40.77474 | -83.18208 | 36867 ft | 550 kts | 44° |
| 2026-05-06 06:07 | 40.82171 | -83.10223 | 36856 ft | 550 kts | 44° |
| 2026-05-06 06:07 | 40.86823 | -83.02268 | 36857 ft | 550 kts | 44° |
| 2026-05-06 06:08 | 40.91493 | -82.94246 | 36863 ft | 550 kts | 44° |
| 2026-05-06 06:08 | 40.96165 | -82.86201 | 36866 ft | 551 kts | 44° |
| 2026-05-06 06:09 | 41.00838 | -82.78130 | 36865 ft | 552 kts | 44° |
| 2026-05-06 06:09 | 41.05491 | -82.70070 | 36861 ft | 549 kts | 44° |
| 2026-05-06 06:10 | 41.10105 | -82.62061 | 36866 ft | 549 kts | 44° |
| 2026-05-06 06:10 | 41.14687 | -82.53915 | 36874 ft | 555 kts | 49° |
| 2026-05-06 06:11 | 41.18597 | -82.44975 | 36873 ft | 563 kts | 56° |
| 2026-05-06 06:11 | 41.22163 | -82.35720 | 36873 ft | 563 kts | 56° |
| 2026-05-06 06:12 | 41.25761 | -82.26473 | 36878 ft | 562 kts | 56° |
| 2026-05-06 06:12 | 41.29408 | -82.17297 | 36877 ft | 561 kts | 55° |
| 2026-05-06 06:13 | 41.33053 | -82.08167 | 36881 ft | 562 kts | 56° |
| 2026-05-06 06:13 | 41.36518 | -81.98811 | 36862 ft | 566 kts | 60° |
| 2026-05-06 06:14 | 41.39597 | -81.89144 | 36858 ft | 568 kts | 62° |
| 2026-05-06 06:14 | 41.42612 | -81.79419 | 36861 ft | 567 kts | 62° |
| 2026-05-06 06:15 | 41.45661 | -81.69715 | 36863 ft | 567 kts | 62° |
| 2026-05-06 06:15 | 41.48731 | -81.60009 | 36869 ft | 567 kts | 62° |
| 2026-05-06 06:16 | 41.51769 | -81.50375 | 36868 ft | 567 kts | 62° |
| 2026-05-06 06:16 | 41.54818 | -81.40656 | 36870 ft | 567 kts | 62° |
| 2026-05-06 06:17 | 41.57846 | -81.30927 | 36860 ft | 567 kts | 62° |
| 2026-05-06 06:17 | 41.60873 | -81.21208 | 36860 ft | 565 kts | 62° |
| 2026-05-06 06:18 | 41.63891 | -81.11521 | 36858 ft | 565 kts | 62° |
| 2026-05-06 06:18 | 41.66906 | -81.01816 | 36858 ft | 565 kts | 62° |
| 2026-05-06 06:19 | 41.69909 | -80.92113 | 36853 ft | 564 kts | 62° |
| 2026-05-06 06:19 | 41.72892 | -80.82427 | 36850 ft | 562 kts | 62° |
| 2026-05-06 06:20 | 41.75866 | -80.72742 | 36851 ft | 562 kts | 62° |
| 2026-05-06 06:20 | 41.78816 | -80.63101 | 36849 ft | 562 kts | 62° |
| 2026-05-06 06:21 | 41.81657 | -80.53314 | 36859 ft | 564 kts | 65° |
| 2026-05-06 06:21 | 41.84302 | -80.43437 | 36853 ft | 562 kts | 66° |
| 2026-05-06 06:22 | 41.86929 | -80.33558 | 36859 ft | 562 kts | 65° |
| 2026-05-06 06:22 | 41.89573 | -80.23683 | 36862 ft | 562 kts | 65° |
| 2026-05-06 06:23 | 41.92219 | -80.13808 | 36853 ft | 562 kts | 65° |
| 2026-05-06 06:23 | 41.94835 | -80.04003 | 36860 ft | 560 kts | 65° |
| 2026-05-06 06:24 | 41.97458 | -79.94131 | 36891 ft | 560 kts | 66° |
| 2026-05-06 06:24 | 42.00066 | -79.84267 | 36859 ft | 559 kts | 66° |
| 2026-05-06 06:25 | 42.02662 | -79.74411 | 36854 ft | 558 kts | 66° |
| 2026-05-06 06:26 | 42.06525 | -79.59671 | 36859 ft | 557 kts | 66° |
| 2026-05-06 06:26 | 42.09060 | -79.49884 | 36851 ft | 557 kts | 66° |
| 2026-05-06 06:27 | 42.11589 | -79.40006 | 36852 ft | 556 kts | 66° |
| 2026-05-06 06:27 | 42.14119 | -79.30177 | 36852 ft | 555 kts | 66° |
| 2026-05-06 06:28 | 42.16228 | -79.21994 | 36851 ft | 555 kts | 66° |
| 2026-05-06 06:28 | 42.18071 | -79.11849 | 36849 ft | 562 kts | 84° |
| 2026-05-06 06:28 | 42.18120 | -79.06578 | 36846 ft | 562 kts | 95° |
| 2026-05-06 06:29 | 42.17527 | -79.01377 | 36843 ft | 560 kts | 106° |
| 2026-05-06 06:29 | 42.14725 | -78.91694 | 36832 ft | 553 kts | 120° |
| 2026-05-06 06:30 | 42.11522 | -78.82245 | 36816 ft | 556 kts | 116° |
| 2026-05-06 06:30 | 42.08826 | -78.72542 | 36820 ft | 558 kts | 112° |
| 2026-05-06 06:31 | 42.06365 | -78.62645 | 36830 ft | 557 kts | 111° |
| 2026-05-06 06:31 | 42.03920 | -78.52758 | 36817 ft | 556 kts | 111° |
| 2026-05-06 06:32 | 42.01432 | -78.42890 | 36820 ft | 557 kts | 111° |
| 2026-05-06 06:32 | 41.98918 | -78.33035 | 36816 ft | 557 kts | 111° |
| 2026-05-06 06:33 | 41.96397 | -78.23183 | 36820 ft | 557 kts | 111° |
| 2026-05-06 06:33 | 41.93889 | -78.13415 | 36822 ft | 558 kts | 112° |
| 2026-05-06 06:34 | 41.91350 | -78.03564 | 36821 ft | 558 kts | 112° |
| 2026-05-06 06:34 | 41.88778 | -77.93734 | 36809 ft | 557 kts | 112° |
| 2026-05-06 06:35 | 41.86200 | -77.83946 | 36816 ft | 556 kts | 112° |
| 2026-05-06 06:35 | 41.83629 | -77.74176 | 36803 ft | 556 kts | 112° |
| 2026-05-06 06:36 | 41.81072 | -77.64465 | 36804 ft | 556 kts | 112° |
| 2026-05-06 06:36 | 41.78487 | -77.54684 | 36808 ft | 554 kts | 112° |
| 2026-05-06 06:37 | 41.75904 | -77.44979 | 36806 ft | 552 kts | 112° |
| 2026-05-06 06:37 | 41.73319 | -77.35292 | 36806 ft | 552 kts | 112° |
| 2026-05-06 06:38 | 41.70732 | -77.25613 | 36803 ft | 552 kts | 112° |
| 2026-05-06 06:38 | 41.68137 | -77.15940 | 36786 ft | 550 kts | 111° |
| 2026-05-06 06:39 | 41.65542 | -77.06361 | 36806 ft | 551 kts | 111° |
| 2026-05-06 06:39 | 41.62925 | -76.96718 | 36804 ft | 552 kts | 112° |
| 2026-05-06 06:40 | 41.60307 | -76.87080 | 36802 ft | 552 kts | 112° |
| 2026-05-06 06:40 | 41.57688 | -76.77468 | 36805 ft | 549 kts | 111° |
| 2026-05-06 06:41 | 41.55065 | -76.67884 | 36807 ft | 549 kts | 111° |
| 2026-05-06 06:41 | 41.52434 | -76.58319 | 36807 ft | 549 kts | 112° |
| 2026-05-06 06:42 | 41.49808 | -76.48830 | 36813 ft | 548 kts | 111° |
| 2026-05-06 06:42 | 41.47221 | -76.39460 | 36450 ft | 523 kts | 112° |
| 2026-05-06 06:42 | 41.45971 | -76.34928 | 35880 ft | 516 kts | 112° |
| 2026-05-06 06:43 | 41.44736 | -76.30465 | 35209 ft | 510 kts | 112° |
| 2026-05-06 06:43 | 41.43511 | -76.26047 | 34570 ft | 505 kts | 112° |
| 2026-05-06 06:43 | 41.42295 | -76.21672 | 33930 ft | 502 kts | 112° |
| 2026-05-06 06:43 | 41.41087 | -76.17330 | 33222 ft | 499 kts | 113° |
| 2026-05-06 06:44 | 41.39881 | -76.13006 | 32545 ft | 497 kts | 113° |
| 2026-05-06 06:44 | 41.38679 | -76.08700 | 31925 ft | 496 kts | 114° |
| 2026-05-06 06:44 | 41.37473 | -76.04393 | 31314 ft | 496 kts | 114° |
| 2026-05-06 06:44 | 41.36272 | -76.00104 | 30698 ft | 495 kts | 114° |
| 2026-05-06 06:45 | 41.35067 | -75.95812 | 30093 ft | 494 kts | 115° |
| 2026-05-06 06:45 | 41.33864 | -75.91534 | 29453 ft | 494 kts | 115° |
| 2026-05-06 06:45 | 41.32674 | -75.87308 | 28815 ft | 494 kts | 115° |
| 2026-05-06 06:45 | 41.31467 | -75.83033 | 28170 ft | 494 kts | 115° |
| 2026-05-06 06:46 | 41.30259 | -75.78760 | 27559 ft | 494 kts | 115° |
| 2026-05-06 06:46 | 41.29048 | -75.74485 | 26957 ft | 493 kts | 115° |
| 2026-05-06 06:46 | 41.27778 | -75.70265 | 26332 ft | 492 kts | 116° |
| 2026-05-06 06:46 | 41.26427 | -75.66098 | 25658 ft | 491 kts | 117° |
| 2026-05-06 06:47 | 41.25038 | -75.61958 | 24982 ft | 490 kts | 118° |
| 2026-05-06 06:47 | 41.23644 | -75.57842 | 24307 ft | 489 kts | 118° |
| 2026-05-06 06:47 | 41.22247 | -75.53712 | 23992 ft | 488 kts | 118° |
| 2026-05-06 06:47 | 41.20867 | -75.49607 | 23672 ft | 483 kts | 118° |
| 2026-05-06 06:48 | 41.19538 | -75.45629 | 23459 ft | 458 kts | 118° |
| 2026-05-06 06:48 | 41.18287 | -75.41867 | 23251 ft | 435 kts | 118° |
| 2026-05-06 06:48 | 41.17095 | -75.38286 | 23113 ft | 413 kts | 118° |
| 2026-05-06 06:48 | 41.15958 | -75.34883 | 22967 ft | 396 kts | 118° |
| 2026-05-06 06:49 | 41.14842 | -75.31580 | 22915 ft | 390 kts | 119° |
| 2026-05-06 06:49 | 41.13727 | -75.28309 | 22909 ft | 389 kts | 119° |
| 2026-05-06 06:49 | 41.12627 | -75.25082 | 22910 ft | 388 kts | 119° |
| 2026-05-06 06:49 | 41.11515 | -75.21814 | 22906 ft | 388 kts | 119° |
| 2026-05-06 06:50 | 41.10405 | -75.18543 | 22895 ft | 389 kts | 119° |
| 2026-05-06 06:50 | 41.09292 | -75.15264 | 22894 ft | 397 kts | 119° |
| 2026-05-06 06:50 | 41.08118 | -75.11828 | 22896 ft | 419 kts | 119° |
| 2026-05-06 06:50 | 41.06886 | -75.08224 | 22896 ft | 439 kts | 118° |
| 2026-05-06 06:51 | 41.05651 | -75.04583 | 22868 ft | 418 kts | 118° |
| 2026-05-06 06:51 | 41.04502 | -75.01155 | 22853 ft | 397 kts | 118° |
| 2026-05-06 06:51 | 41.03391 | -74.97855 | 22841 ft | 390 kts | 119° |
| 2026-05-06 06:51 | 41.02281 | -74.94585 | 22844 ft | 388 kts | 119° |
| 2026-05-06 06:52 | 41.01171 | -74.91328 | 22846 ft | 388 kts | 119° |
| 2026-05-06 06:52 | 41.00073 | -74.88068 | 22724 ft | 386 kts | 116° |
| 2026-05-06 06:52 | 40.99275 | -74.84658 | 22000 ft | 390 kts | 107° |
| 2026-05-06 06:52 | 40.98779 | -74.81179 | 21410 ft | 389 kts | 102° |
| 2026-05-06 06:53 | 40.98389 | -74.77651 | 20836 ft | 386 kts | 101° |
| 2026-05-06 06:53 | 40.98027 | -74.74148 | 20273 ft | 383 kts | 102° |
| 2026-05-06 06:53 | 40.97663 | -74.70673 | 19900 ft | 381 kts | 102° |
| 2026-05-06 06:53 | 40.97285 | -74.67206 | 19544 ft | 380 kts | 102° |
| 2026-05-06 06:54 | 40.96899 | -74.63761 | 19182 ft | 378 kts | 103° |
| 2026-05-06 06:54 | 40.96507 | -74.60333 | 18941 ft | 375 kts | 103° |
| 2026-05-06 06:54 | 40.96111 | -74.56917 | 18907 ft | 375 kts | 103° |
| 2026-05-06 06:54 | 40.95712 | -74.53502 | 18895 ft | 375 kts | 103° |
| 2026-05-06 06:55 | 40.95310 | -74.50082 | 18895 ft | 375 kts | 103° |
| 2026-05-06 06:55 | 40.94913 | -74.46717 | 18898 ft | 375 kts | 103° |
| 2026-05-06 06:55 | 40.94511 | -74.43308 | 18897 ft | 375 kts | 103° |
| 2026-05-06 06:55 | 40.94106 | -74.39890 | 18896 ft | 375 kts | 103° |
| 2026-05-06 06:56 | 40.93701 | -74.36479 | 18898 ft | 375 kts | 103° |
| 2026-05-06 06:56 | 40.93296 | -74.33072 | 18889 ft | 374 kts | 103° |
| 2026-05-06 06:56 | 40.92892 | -74.29683 | 18896 ft | 373 kts | 103° |
| 2026-05-06 06:56 | 40.92487 | -74.26292 | 18897 ft | 373 kts | 103° |
| 2026-05-06 06:57 | 40.92081 | -74.22909 | 18898 ft | 372 kts | 103° |
| 2026-05-06 06:57 | 40.91674 | -74.19526 | 18895 ft | 372 kts | 103° |
| 2026-05-06 06:57 | 40.91266 | -74.16141 | 18898 ft | 373 kts | 103° |
| 2026-05-06 06:57 | 40.90730 | -74.12814 | 18895 ft | 367 kts | 115° |
| 2026-05-06 06:58 | 40.89677 | -74.09785 | 18900 ft | 360 kts | 126° |
| 2026-05-06 06:58 | 40.88399 | -74.07006 | 18774 ft | 354 kts | 129° |
| 2026-05-06 06:58 | 40.87043 | -74.04279 | 18177 ft | 354 kts | 131° |
| 2026-05-06 06:58 | 40.85677 | -74.01580 | 17606 ft | 352 kts | 130° |
| 2026-05-06 06:59 | 40.84335 | -73.98907 | 17138 ft | 346 kts | 130° |
| 2026-05-06 06:59 | 40.83039 | -73.96299 | 16673 ft | 341 kts | 130° |
| 2026-05-06 06:59 | 40.81751 | -73.93687 | 16207 ft | 337 kts | 130° |
| 2026-05-06 06:59 | 40.80483 | -73.91107 | 15719 ft | 333 kts | 130° |
| 2026-05-06 07:00 | 40.79233 | -73.88554 | 15265 ft | 329 kts | 130° |
| 2026-05-06 07:00 | 40.77994 | -73.86056 | 14823 ft | 324 kts | 130° |
| 2026-05-06 07:00 | 40.76751 | -73.83580 | 14367 ft | 321 kts | 130° |
| 2026-05-06 07:00 | 40.75538 | -73.81133 | 13936 ft | 317 kts | 130° |
| 2026-05-06 07:01 | 40.74347 | -73.78706 | 13475 ft | 314 kts | 130° |
| 2026-05-06 07:01 | 40.73170 | -73.76301 | 13007 ft | 310 kts | 130° |
| 2026-05-06 07:01 | 40.72008 | -73.73920 | 12534 ft | 307 kts | 130° |
| 2026-05-06 07:01 | 40.70860 | -73.71565 | 12057 ft | 304 kts | 130° |
| 2026-05-06 07:02 | 40.69691 | -73.69274 | 11522 ft | 296 kts | 138° |
| 2026-05-06 07:02 | 40.68134 | -73.67677 | 11076 ft | 276 kts | 162° |
| 2026-05-06 07:02 | 40.66322 | -73.67132 | 10591 ft | 262 kts | 181° |
| 2026-05-06 07:02 | 40.64548 | -73.67126 | 9767 ft | 256 kts | 186° |
| 2026-05-06 07:03 | 40.62777 | -73.67235 | 8971 ft | 249 kts | 187° |
| 2026-05-06 07:03 | 40.61073 | -73.67352 | 8091 ft | 249 kts | 187° |
| 2026-05-06 07:03 | 40.59340 | -73.67466 | 7236 ft | 249 kts | 188° |
| 2026-05-06 07:03 | 40.57713 | -73.68056 | 6544 ft | 236 kts | 215° |
| 2026-05-06 07:04 | 40.56667 | -73.69531 | 6239 ft | 216 kts | 242° |
| 2026-05-06 07:04 | 40.56246 | -73.71419 | 5726 ft | 215 kts | 255° |
| 2026-05-06 07:04 | 40.55933 | -73.73306 | 5125 ft | 209 kts | 253° |
| 2026-05-06 07:04 | 40.55534 | -73.75119 | 4392 ft | 204 kts | 250° |
| 2026-05-06 07:05 | 40.55065 | -73.76853 | 3980 ft | 202 kts | 246° |
| 2026-05-06 07:05 | 40.54734 | -73.78625 | 3609 ft | 204 kts | 266° |
| 2026-05-06 07:05 | 40.55124 | -73.80443 | 3252 ft | 212 kts | 286° |
| 2026-05-06 07:05 | 40.55781 | -73.82179 | 3045 ft | 212 kts | 287° |
| 2026-05-06 07:06 | 40.56420 | -73.83928 | 3016 ft | 212 kts | 285° |
| 2026-05-06 07:06 | 40.57018 | -73.85674 | 3014 ft | 212 kts | 284° |
| 2026-05-06 07:06 | 40.57596 | -73.87452 | 3015 ft | 211 kts | 283° |
| 2026-05-06 07:06 | 40.58154 | -73.89246 | 3015 ft | 211 kts | 283° |
| 2026-05-06 07:07 | 40.58695 | -73.91040 | 3011 ft | 210 kts | 282° |
| 2026-05-06 07:07 | 40.59221 | -73.92827 | 3012 ft | 209 kts | 282° |
| 2026-05-06 07:07 | 40.59729 | -73.94566 | 2992 ft | 190 kts | 282° |
| 2026-05-06 07:07 | 40.60167 | -73.96044 | 2963 ft | 161 kts | 280° |
| 2026-05-06 07:08 | 40.60548 | -73.97383 | 2985 ft | 155 kts | 279° |
| 2026-05-06 07:08 | 40.60910 | -73.98683 | 2991 ft | 149 kts | 278° |
| 2026-05-06 07:08 | 40.61249 | -73.99849 | 2954 ft | 131 kts | 278° |
| 2026-05-06 07:08 | 40.61684 | -74.00915 | 3003 ft | 136 kts | 290° |
| 2026-05-06 07:09 | 40.62369 | -74.01850 | 2995 ft | 155 kts | 307° |
| 2026-05-06 07:09 | 40.63436 | -74.02563 | 3041 ft | 187 kts | 332° |
| 2026-05-06 07:09 | 40.64804 | -74.02614 | 2991 ft | 210 kts | 4° |
| 2026-05-06 07:09 | 40.66208 | -74.01911 | 3030 ft | 219 kts | 18° |
| 2026-05-06 07:10 | 40.67549 | -74.01047 | 2640 ft | 212 kts | 19° |
| 2026-05-06 07:10 | 40.68848 | -74.00185 | 2233 ft | 208 kts | 20° |
| 2026-05-06 07:10 | 40.70110 | -73.99263 | 1862 ft | 208 kts | 33° |
| 2026-05-06 07:10 | 40.71027 | -73.97832 | 1501 ft | 200 kts | 75° |
| 2026-05-06 07:11 | 40.71231 | -73.96108 | 1525 ft | 188 kts | 101° |
| 2026-05-06 07:11 | 40.71208 | -73.94439 | 1512 ft | 186 kts | 102° |
| 2026-05-06 07:11 | 40.71168 | -73.92737 | 1500 ft | 185 kts | 102° |
| 2026-05-06 07:11 | 40.70982 | -73.91141 | 1438 ft | 170 kts | 127° |
| 2026-05-06 07:12 | 40.70478 | -73.89809 | 1486 ft | 158 kts | 133° |
| 2026-05-06 07:12 | 40.69956 | -73.88547 | 1462 ft | 156 kts | 134° |
| 2026-05-06 07:12 | 40.69465 | -73.87251 | 1391 ft | 160 kts | 128° |
| 2026-05-06 07:12 | 40.69009 | -73.85947 | 1322 ft | 155 kts | 131° |
| 2026-05-06 07:13 | 40.68477 | -73.84766 | 1109 ft | 146 kts | 137° |
| 2026-05-06 07:13 | 40.67927 | -73.83614 | 1014 ft | 149 kts | 136° |
| 2026-05-06 07:13 | 40.67377 | -73.82455 | 809 ft | 149 kts | 128° |
| 2026-05-06 07:13 | 40.66846 | -73.81315 | 590 ft | 142 kts | 127° |
| 2026-05-06 07:14 | 40.66340 | -73.80227 | 329 ft | 138 kts | 127° |
| 2026-05-06 07:14 | 40.65834 | -73.79134 | 135 ft | 139 kts | 125° |
| 2026-05-06 07:14 | 40.65344 | -73.78065 | 32 ft | 126 kts | 127° |
| 2026-05-06 07:14 | 40.64973 | -73.77254 | 26 ft | 77 kts | 121° |
| 2026-05-06 07:15 | 40.64821 | -73.76970 | 27 ft | 24 kts | 143° |
| 2026-05-06 07:15 | 40.64754 | -73.76928 | 26 ft | 4 kts | 181° |
| 2026-05-06 07:15 | 40.64732 | -73.76941 | 26 ft | 2 kts | 223° |
| 2026-05-06 07:15 | 40.64730 | -73.76954 | 27 ft | 2 kts | 256° |
| 2026-05-06 07:16 | 40.64743 | -73.77020 | 31 ft | 15 kts | 295° |
| 2026-05-06 07:16 | 40.64836 | -73.77228 | 32 ft | 34 kts | 300° |
| 2026-05-06 07:16 | 40.64954 | -73.77495 | 27 ft | 35 kts | 300° |
| 2026-05-06 07:16 | 40.65068 | -73.77745 | 29 ft | 28 kts | 301° |
| 2026-05-06 07:17 | 40.65165 | -73.77960 | 28 ft | 26 kts | 300° |
| 2026-05-06 07:17 | 40.65257 | -73.78157 | 32 ft | 24 kts | 301° |
| 2026-05-06 07:17 | 40.65342 | -73.78336 | 32 ft | 22 kts | 296° |
| 2026-05-06 07:17 | 40.65324 | -73.78552 | 31 ft | 29 kts | 242° |
| 2026-05-06 07:18 | 40.65223 | -73.78814 | 31 ft | 33 kts | 252° |
| 2026-05-06 07:18 | 40.65140 | -73.78914 | 31 ft | 12 kts | 178° |
| 2026-05-06 07:18 | 40.65047 | -73.78933 | 31 ft | 12 kts | 207° |
| 2026-05-06 07:18 | 40.64994 | -73.79031 | 31 ft | 20 kts | 240° |
| 2026-05-06 07:19 | 40.64914 | -73.79217 | 30 ft | 15 kts | 240° |
| 2026-05-06 07:19 | 40.64897 | -73.79247 | 31 ft | 4 kts | 221° |
| 2026-05-06 07:19 | 40.64878 | -73.79252 | 31 ft | 4 kts | 181° |
| 2026-05-06 07:19 | 40.64863 | -73.79246 | 31 ft | 1 kts | 160° |
| 2026-05-06 07:20 | 40.64838 | -73.79231 | 31 ft | 5 kts | 153° |
| 2026-05-06 07:20 | 40.64836 | -73.79230 | 31 ft | 0 kts | 153° |